Time;durP1;ratioP1;P1;durP2;ratioP2;P2;SDS_P1;SDS_P2;PMS_P1;PMS_P2;Temp;Humidity;BMP_temperature;BMP_pressure;BME280_temperature;BME280_humidity;BME280_pressure;Samples;Min_cycle;Max_cycle;Signal;HPM_P1;HPM_P2
2023/06/15 00:02:17;;;;;;;13.40;9.10;;;;;;;-128.00;-1.00;-1.00;103070;1261;1002778;-67
2023/06/15 00:04:45;;;;;;;16.70;10.20;;;;;;;-128.00;-1.00;-1.00;103112;1258;1002959;-67
2023/06/15 00:07:12;;;;;;;18.50;10.60;;;;;;;-128.00;-1.00;-1.00;103062;1259;1012759;-67
2023/06/15 00:09:39;;;;;;;16.00;11.10;;;;;;;-128.00;-1.00;-1.00;103061;1256;1004196;-67
2023/06/15 00:12:09;;;;;;;16.60;11.30;;;;;;;-128.00;-1.00;-1.00;103126;1262;1003086;-67
2023/06/15 00:14:36;;;;;;;17.80;11.00;;;;;;;-128.00;-1.00;-1.00;103077;1258;1010984;-67
2023/06/15 00:17:04;;;;;;;18.70;11.50;;;;;;;-128.00;-1.00;-1.00;103100;1259;1002904;-68
2023/06/15 00:19:31;;;;;;;18.40;11.90;;;;;;;-128.00;-1.00;-1.00;103070;1262;1002857;-69
2023/06/15 00:21:58;;;;;;;17.60;11.10;;;;;;;-128.00;-1.00;-1.00;103024;1257;1004264;-69
2023/06/15 00:24:26;;;;;;;17.40;10.70;;;;;;;-128.00;-1.00;-1.00;103124;1260;1002860;-69
2023/06/15 00:26:53;;;;;;;19.80;12.00;;;;;;;-128.00;-1.00;-1.00;103147;1261;1002282;-69
2023/06/15 00:29:20;;;;;;;19.00;11.80;;;;;;;-128.00;-1.00;-1.00;103053;1262;1002584;-68
2023/06/15 00:31:47;;;;;;;16.90;11.80;;;;;;;-128.00;-1.00;-1.00;103037;1256;1003139;-68
2023/06/15 00:34:14;;;;;;;15.10;10.30;;;;;;;-128.00;-1.00;-1.00;103058;1256;1003972;-69
2023/06/15 00:36:41;;;;;;;19.60;12.40;;;;;;;-128.00;-1.00;-1.00;103098;1262;1003191;-68
2023/06/15 00:39:09;;;;;;;15.50;10.50;;;;;;;-128.00;-1.00;-1.00;103112;1260;1002485;-68
2023/06/15 00:41:43;;;;;;;18.60;11.90;;;;;;;-128.00;-1.00;-1.00;102736;1257;1002899;-68
2023/06/15 00:44:10;;;;;;;15.20;10.80;;;;;;;-128.00;-1.00;-1.00;102696;1256;1012166;-68
2023/06/15 00:46:38;;;;;;;16.00;10.40;;;;;;;-128.00;-1.00;-1.00;102873;1261;1002791;-74
2023/06/15 00:49:06;;;;;;;17.60;11.70;;;;;;;-128.00;-1.00;-1.00;103090;1256;1002157;-70
2023/06/15 00:51:38;;;;;;;20.80;13.60;;;;;;;-128.00;-1.00;-1.00;103078;1260;1004178;-67
2023/06/15 00:54:06;;;;;;;22.90;14.80;;;;;;;-128.00;-1.00;-1.00;103057;1259;1012864;-68
2023/06/15 00:56:34;;;;;;;15.10;10.60;;;;;;;-128.00;-1.00;-1.00;103085;1259;1002311;-70
2023/06/15 00:59:02;;;;;;;15.40;10.80;;;;;;;-128.00;-1.00;-1.00;103032;1259;1014104;-69
2023/06/15 01:01:28;;;;;;;16.30;11.20;;;;;;;-128.00;-1.00;-1.00;103060;1257;1005044;-71
2023/06/15 01:03:57;;;;;;;20.10;11.90;;;;;;;-128.00;-1.00;-1.00;103036;1261;1003152;-70
2023/06/15 01:06:24;;;;;;;19.00;11.80;;;;;;;-128.00;-1.00;-1.00;103086;1262;1012755;-72
2023/06/15 01:08:53;;;;;;;17.20;11.40;;;;;;;-128.00;-1.00;-1.00;103069;1261;1002645;-69
2023/06/15 01:11:21;;;;;;;18.90;12.20;;;;;;;-128.00;-1.00;-1.00;103066;1259;1012638;-72
2023/06/15 01:13:49;;;;;;;18.20;11.90;;;;;;;-128.00;-1.00;-1.00;103043;1261;1002697;-69
2023/06/15 01:16:24;;;;;;;17.30;10.50;;;;;;;-128.00;-1.00;-1.00;103056;1261;1011797;-68
2023/06/15 01:18:57;;;;;;;13.90;10.30;;;;;;;-128.00;-1.00;-1.00;102986;1260;1013307;-67
2023/06/15 01:21:29;;;;;;;15.00;11.00;;;;;;;-128.00;-1.00;-1.00;103055;1262;1012148;-68
2023/06/15 01:24:02;;;;;;;15.50;10.30;;;;;;;-128.00;-1.00;-1.00;103089;1259;1012602;-68
2023/06/15 01:26:32;;;;;;;15.70;11.00;;;;;;;-128.00;-1.00;-1.00;103060;1260;1009942;-67
2023/06/15 01:28:59;;;;;;;14.50;10.40;;;;;;;-128.00;-1.00;-1.00;103057;1257;1011332;-69
2023/06/15 01:31:28;;;;;;;15.10;10.50;;;;;;;-128.00;-1.00;-1.00;103019;1258;1002957;-67
2023/06/15 01:33:55;;;;;;;17.70;11.70;;;;;;;-128.00;-1.00;-1.00;103054;1257;1012512;-67
2023/06/15 01:36:23;;;;;;;17.10;11.90;;;;;;;-128.00;-1.00;-1.00;102825;1256;1003085;-66
2023/06/15 01:38:52;;;;;;;15.60;11.40;;;;;;;-128.00;-1.00;-1.00;102716;1258;1002532;-68
2023/06/15 01:41:23;;;;;;;14.30;10.80;;;;;;;-128.00;-1.00;-1.00;102831;1260;1011056;-68
2023/06/15 01:43:52;;;;;;;14.10;11.00;;;;;;;-128.00;-1.00;-1.00;102635;1257;1012688;-67
2023/06/15 01:46:21;;;;;;;15.90;10.70;;;;;;;-128.00;-1.00;-1.00;102665;1262;1011863;-70
2023/06/15 01:48:49;;;;;;;19.50;13.10;;;;;;;-128.00;-1.00;-1.00;102798;1260;1012396;-70
2023/06/15 01:51:17;;;;;;;22.90;13.90;;;;;;;-128.00;-1.00;-1.00;102847;1261;1011269;-69
2023/06/15 01:53:45;;;;;;;22.00;13.50;;;;;;;-128.00;-1.00;-1.00;102698;1256;1003296;-72
2023/06/15 01:56:14;;;;;;;19.00;13.00;;;;;;;-128.00;-1.00;-1.00;102871;1256;1003822;-69
2023/06/15 01:58:41;;;;;;;17.70;11.90;;;;;;;-128.00;-1.00;-1.00;102876;1257;1012331;-71
2023/06/15 02:01:08;;;;;;;16.30;11.50;;;;;;;-128.00;-1.00;-1.00;102738;1258;1003252;-67
2023/06/15 02:03:35;;;;;;;17.80;11.90;;;;;;;-128.00;-1.00;-1.00;102645;1262;1002745;-66
2023/06/15 02:06:02;;;;;;;17.00;12.60;;;;;;;-128.00;-1.00;-1.00;102977;1261;1002481;-74
2023/06/15 02:08:29;;;;;;;17.60;12.60;;;;;;;-128.00;-1.00;-1.00;102840;1261;1003309;-69
2023/06/15 02:10:56;;;;;;;16.30;11.30;;;;;;;-128.00;-1.00;-1.00;103041;1259;1002668;-80
2023/06/15 02:13:23;;;;;;;16.10;11.20;;;;;;;-128.00;-1.00;-1.00;103052;1259;1002401;-67
2023/06/15 02:15:50;;;;;;;18.20;10.70;;;;;;;-128.00;-1.00;-1.00;103045;1259;1003537;-68
2023/06/15 02:18:18;;;;;;;20.80;12.30;;;;;;;-128.00;-1.00;-1.00;103053;1262;1003574;-67
2023/06/15 02:20:46;;;;;;;17.50;12.20;;;;;;;-128.00;-1.00;-1.00;103022;1257;1002053;-67
2023/06/15 02:23:13;;;;;;;16.80;10.90;;;;;;;-128.00;-1.00;-1.00;102939;1259;1011697;-67
2023/06/15 02:25:40;;;;;;;16.90;11.60;;;;;;;-128.00;-1.00;-1.00;102793;1260;1003416;-67
2023/06/15 02:28:08;;;;;;;16.50;11.80;;;;;;;-128.00;-1.00;-1.00;103121;1262;1002502;-67
2023/06/15 02:30:35;;;;;;;16.90;11.70;;;;;;;-128.00;-1.00;-1.00;103025;1261;1004548;-68
2023/06/15 02:33:04;;;;;;;17.20;11.10;;;;;;;-128.00;-1.00;-1.00;103060;1259;1003822;-68
2023/06/15 02:35:31;;;;;;;16.20;10.90;;;;;;;-128.00;-1.00;-1.00;103083;1260;1012504;-67
2023/06/15 02:37:58;;;;;;;18.90;11.90;;;;;;;-128.00;-1.00;-1.00;103078;1260;1002396;-67
2023/06/15 02:40:25;;;;;;;16.50;11.00;;;;;;;-128.00;-1.00;-1.00;103038;1261;1002439;-68
2023/06/15 02:42:52;;;;;;;19.50;12.70;;;;;;;-128.00;-1.00;-1.00;103091;1260;1002789;-67
2023/06/15 02:45:19;;;;;;;19.60;12.80;;;;;;;-128.00;-1.00;-1.00;103035;1259;1002829;-67
2023/06/15 02:47:47;;;;;;;20.30;13.90;;;;;;;-128.00;-1.00;-1.00;103056;1261;1002991;-67
2023/06/15 02:50:14;;;;;;;18.80;12.90;;;;;;;-128.00;-1.00;-1.00;103082;1261;1003114;-67
2023/06/15 02:52:45;;;;;;;18.70;11.90;;;;;;;-128.00;-1.00;-1.00;103095;1262;1002347;-67
2023/06/15 02:55:13;;;;;;;19.70;12.00;;;;;;;-128.00;-1.00;-1.00;102939;1259;1011183;-68
2023/06/15 02:57:41;;;;;;;20.60;12.50;;;;;;;-128.00;-1.00;-1.00;103029;1262;1013135;-69
2023/06/15 03:00:12;;;;;;;18.90;12.20;;;;;;;-128.00;-1.00;-1.00;103030;1259;1004935;-67
2023/06/15 03:02:43;;;;;;;19.40;12.40;;;;;;;-128.00;-1.00;-1.00;103046;1262;1012522;-67
2023/06/15 03:05:11;;;;;;;18.30;12.00;;;;;;;-128.00;-1.00;-1.00;103034;1262;1010725;-68
2023/06/15 03:07:40;;;;;;;17.40;11.60;;;;;;;-128.00;-1.00;-1.00;103097;1258;1010809;-68
2023/06/15 03:10:08;;;;;;;18.20;11.70;;;;;;;-128.00;-1.00;-1.00;103104;1258;1013752;-69
2023/06/15 03:12:35;;;;;;;16.60;11.30;;;;;;;-128.00;-1.00;-1.00;103064;1262;1002403;-68
2023/06/15 03:15:02;;;;;;;14.80;10.90;;;;;;;-128.00;-1.00;-1.00;103037;1258;1002533;-67
2023/06/15 03:17:32;;;;;;;16.40;11.30;;;;;;;-128.00;-1.00;-1.00;103101;1262;1003154;-66
2023/06/15 03:20:00;;;;;;;17.10;10.70;;;;;;;-128.00;-1.00;-1.00;103047;1262;1011394;-70
2023/06/15 03:22:27;;;;;;;16.40;11.60;;;;;;;-128.00;-1.00;-1.00;103095;1258;1002833;-69
2023/06/15 03:24:55;;;;;;;17.20;11.30;;;;;;;-128.00;-1.00;-1.00;103040;1259;1003631;-66
2023/06/15 03:27:22;;;;;;;16.80;11.40;;;;;;;-128.00;-1.00;-1.00;102971;1259;1002949;-68
2023/06/15 03:29:51;;;;;;;16.90;11.70;;;;;;;-128.00;-1.00;-1.00;102742;1262;1002674;-75
2023/06/15 03:32:20;;;;;;;16.80;11.80;;;;;;;-128.00;-1.00;-1.00;102806;1262;1010891;-74
2023/06/15 03:34:57;;;;;;;15.30;10.40;;;;;;;-128.00;-1.00;-1.00;102878;1257;1012906;-69
2023/06/15 03:37:29;;;;;;;17.70;10.90;;;;;;;-128.00;-1.00;-1.00;103057;1258;1012943;-67
2023/06/15 03:39:56;;;;;;;15.90;10.40;;;;;;;-128.00;-1.00;-1.00;103072;1261;1002574;-68
2023/06/15 03:42:23;;;;;;;15.00;10.50;;;;;;;-128.00;-1.00;-1.00;103057;1257;1003176;-69
2023/06/15 03:44:50;;;;;;;17.80;10.80;;;;;;;-128.00;-1.00;-1.00;103024;1258;1003026;-68
2023/06/15 03:47:17;;;;;;;19.50;12.80;;;;;;;-128.00;-1.00;-1.00;102825;1261;1002802;-68
2023/06/15 03:49:44;;;;;;;17.80;11.20;;;;;;;-128.00;-1.00;-1.00;102902;1261;1002504;-69
2023/06/15 03:52:11;;;;;;;18.00;11.80;;;;;;;-128.00;-1.00;-1.00;102863;1262;1002801;-68
2023/06/15 03:54:38;;;;;;;23.70;11.30;;;;;;;-128.00;-1.00;-1.00;102793;1261;1004897;-70
2023/06/15 03:57:06;;;;;;;19.30;10.90;;;;;;;-128.00;-1.00;-1.00;103071;1260;1003085;-70
2023/06/15 03:59:33;;;;;;;18.30;12.30;;;;;;;-128.00;-1.00;-1.00;103122;1258;1013028;-69
2023/06/15 04:02:02;;;;;;;16.10;11.80;;;;;;;-128.00;-1.00;-1.00;103035;1260;1002367;-69
2023/06/15 04:04:32;;;;;;;18.20;10.60;;;;;;;-128.00;-1.00;-1.00;103062;1261;1013325;-69
2023/06/15 04:06:59;;;;;;;16.40;10.70;;;;;;;-128.00;-1.00;-1.00;103076;1263;1010344;-68
2023/06/15 04:09:27;;;;;;;15.00;10.80;;;;;;;-128.00;-1.00;-1.00;103081;1261;1003041;-69
2023/06/15 04:11:54;;;;;;;17.70;10.10;;;;;;;-128.00;-1.00;-1.00;103071;1262;1004403;-69
2023/06/15 04:14:21;;;;;;;16.00;10.50;;;;;;;-128.00;-1.00;-1.00;103063;1257;1003145;-69
2023/06/15 04:16:48;;;;;;;15.50;10.40;;;;;;;-128.00;-1.00;-1.00;103055;1258;1002825;-69
2023/06/15 04:19:15;;;;;;;16.50;11.10;;;;;;;-128.00;-1.00;-1.00;103030;1262;1002320;-67
2023/06/15 04:21:41;;;;;;;16.10;11.60;;;;;;;-128.00;-1.00;-1.00;103029;1257;1002917;-68
2023/06/15 04:24:08;;;;;;;15.90;10.10;;;;;;;-128.00;-1.00;-1.00;103067;1262;1003307;-68
2023/06/15 04:26:36;;;;;;;16.80;10.30;;;;;;;-128.00;-1.00;-1.00;103100;1262;1003280;-68
2023/06/15 04:29:04;;;;;;;17.70;11.10;;;;;;;-128.00;-1.00;-1.00;103107;1257;1003970;-68
2023/06/15 04:31:33;;;;;;;17.20;11.40;;;;;;;-128.00;-1.00;-1.00;103074;1262;1003292;-68
2023/06/15 04:34:04;;;;;;;19.90;11.10;;;;;;;-128.00;-1.00;-1.00;103068;1263;1011406;-67
2023/06/15 04:36:38;;;;;;;;;;;;;;;-128.00;-1.00;-1.00;103087;1262;1013888;-68
2023/06/15 04:39:05;;;;;;;19.60;11.80;;;;;;;-128.00;-1.00;-1.00;103080;1262;1012848;-69
2023/06/15 04:41:35;;;;;;;19.60;11.40;;;;;;;-128.00;-1.00;-1.00;103044;1262;1002359;-68
2023/06/15 04:44:08;;;;;;;18.40;10.90;;;;;;;-128.00;-1.00;-1.00;103015;1259;1009262;-68
2023/06/15 04:46:40;;;;;;;17.90;11.50;;;;;;;-128.00;-1.00;-1.00;103054;1261;1010810;-69
2023/06/15 04:49:15;;;;;;;19.60;11.30;;;;;;;-128.00;-1.00;-1.00;103048;1263;1013218;-66
2023/06/15 04:51:51;;;;;;;17.60;11.40;;;;;;;-128.00;-1.00;-1.00;102816;1261;1011669;-68
2023/06/15 04:54:22;;;;;;;15.40;10.70;;;;;;;-128.00;-1.00;-1.00;102671;1262;1012939;-68
2023/06/15 04:56:49;;;;;;;15.70;10.20;;;;;;;-128.00;-1.00;-1.00;102716;1261;1002040;-70
2023/06/15 04:59:16;;;;;;;14.70;9.90;;;;;;;-128.00;-1.00;-1.00;103074;1265;1003460;-69
2023/06/15 05:01:44;;;;;;;18.90;10.80;;;;;;;-128.00;-1.00;-1.00;103048;1260;1004060;-69
2023/06/15 05:04:11;;;;;;;15.60;9.90;;;;;;;-128.00;-1.00;-1.00;103056;1256;1002252;-69
2023/06/15 05:06:38;;;;;;;21.70;12.60;;;;;;;-128.00;-1.00;-1.00;103019;1262;1003094;-66
2023/06/15 05:09:05;;;;;;;14.20;10.10;;;;;;;-128.00;-1.00;-1.00;103027;1261;1002851;-68
2023/06/15 05:11:33;;;;;;;13.20;9.00;;;;;;;-128.00;-1.00;-1.00;103019;1260;1002741;-69
2023/06/15 05:14:00;;;;;;;15.70;9.30;;;;;;;-128.00;-1.00;-1.00;102689;1261;1002404;-70
2023/06/15 05:16:27;;;;;;;15.00;9.60;;;;;;;-128.00;-1.00;-1.00;102973;1257;1003023;-67
2023/06/15 05:18:55;;;;;;;13.30;9.20;;;;;;;-128.00;-1.00;-1.00;102996;1259;1002978;-70
2023/06/15 05:21:22;;;;;;;12.90;8.90;;;;;;;-128.00;-1.00;-1.00;103037;1259;1002296;-71
2023/06/15 05:23:49;;;;;;;12.30;9.40;;;;;;;-128.00;-1.00;-1.00;103062;1258;1002125;-68
2023/06/15 05:26:16;;;;;;;11.80;8.10;;;;;;;-128.00;-1.00;-1.00;103082;1259;1002938;-70
2023/06/15 05:28:46;;;;;;;11.30;7.70;;;;;;;-128.00;-1.00;-1.00;103053;1260;1012140;-75
2023/06/15 05:31:13;;;;;;;11.50;8.30;;;;;;;-128.00;-1.00;-1.00;103061;1258;1003488;-66
2023/06/15 05:33:40;;;;;;;11.70;7.50;;;;;;;-128.00;-1.00;-1.00;103001;1258;1002871;-66
2023/06/15 05:36:07;;;;;;;10.90;8.20;;;;;;;-128.00;-1.00;-1.00;103062;1259;1003179;-67
2023/06/15 05:38:54;;;;;;;11.40;8.50;;;;;;;-128.00;-1.00;-1.00;103027;1260;1014103;-67
2023/06/15 05:41:21;;;;;;;14.50;9.30;;;;;;;-128.00;-1.00;-1.00;103138;1258;1003085;-66
2023/06/15 05:43:49;;;;;;;12.30;8.50;;;;;;;-128.00;-1.00;-1.00;103052;1260;1003145;-66
2023/06/15 05:46:16;;;;;;;14.30;9.40;;;;;;;-128.00;-1.00;-1.00;103050;1261;1002538;-67
2023/06/15 05:48:43;;;;;;;13.10;9.00;;;;;;;-128.00;-1.00;-1.00;103032;1257;1002639;-67
2023/06/15 05:51:11;;;;;;;14.80;9.90;;;;;;;-128.00;-1.00;-1.00;102905;1260;1002611;-66
2023/06/15 05:53:38;;;;;;;15.60;10.40;;;;;;;-128.00;-1.00;-1.00;103035;1261;1002914;-68
2023/06/15 05:56:05;;;;;;;15.00;11.00;;;;;;;-128.00;-1.00;-1.00;102762;1260;1002588;-67
2023/06/15 05:58:33;;;;;;;19.70;11.70;;;;;;;-128.00;-1.00;-1.00;103051;1258;1002764;-67
2023/06/15 06:01:00;;;;;;;19.00;12.70;;;;;;;-128.00;-1.00;-1.00;102960;1261;1003096;-66
2023/06/15 06:03:28;;;;;;;18.90;13.50;;;;;;;-128.00;-1.00;-1.00;102715;1258;1003693;-65
2023/06/15 06:05:55;;;;;;;21.60;13.70;;;;;;;-128.00;-1.00;-1.00;103038;1258;1002887;-66
2023/06/15 06:08:23;;;;;;;23.20;14.30;;;;;;;-128.00;-1.00;-1.00;102989;1258;1003176;-65
2023/06/15 06:10:50;;;;;;;20.00;13.40;;;;;;;-128.00;-1.00;-1.00;103042;1261;1010733;-66
2023/06/15 06:13:17;;;;;;;23.90;15.00;;;;;;;-128.00;-1.00;-1.00;103036;1260;1003017;-66
2023/06/15 06:15:45;;;;;;;23.00;14.70;;;;;;;-128.00;-1.00;-1.00;102852;1258;1002509;-66
2023/06/15 06:18:12;;;;;;;18.90;13.00;;;;;;;-128.00;-1.00;-1.00;102878;1260;1002566;-67
2023/06/15 06:20:39;;;;;;;22.20;14.10;;;;;;;-128.00;-1.00;-1.00;102864;1261;1002659;-74
2023/06/15 06:23:07;;;;;;;25.30;18.00;;;;;;;-128.00;-1.00;-1.00;103087;1259;1003115;-69
2023/06/15 06:25:34;;;;;;;25.00;15.70;;;;;;;-128.00;-1.00;-1.00;103104;1260;1002366;-67
2023/06/15 06:28:02;;;;;;;22.10;15.60;;;;;;;-128.00;-1.00;-1.00;103082;1257;1003708;-66
2023/06/15 06:30:30;;;;;;;22.80;16.10;;;;;;;-128.00;-1.00;-1.00;103125;1260;1003126;-67
2023/06/15 06:32:57;;;;;;;26.30;17.00;;;;;;;-128.00;-1.00;-1.00;103092;1261;1002887;-66
2023/06/15 06:35:27;;;;;;;27.40;17.40;;;;;;;-128.00;-1.00;-1.00;103075;1261;1009907;-66
2023/06/15 06:37:54;;;;;;;27.60;17.40;;;;;;;-128.00;-1.00;-1.00;103063;1260;1003194;-67
2023/06/15 06:40:22;;;;;;;27.10;18.00;;;;;;;-128.00;-1.00;-1.00;103054;1260;1003702;-66
2023/06/15 06:42:49;;;;;;;26.00;16.70;;;;;;;-128.00;-1.00;-1.00;103044;1258;1002662;-66
2023/06/15 06:45:16;;;;;;;24.70;15.80;;;;;;;-128.00;-1.00;-1.00;103028;1256;1002578;-67
2023/06/15 06:47:44;;;;;;;23.30;16.10;;;;;;;-128.00;-1.00;-1.00;103055;1260;1002901;-67
2023/06/15 06:50:11;;;;;;;25.00;16.50;;;;;;;-128.00;-1.00;-1.00;103134;1260;1002890;-67
2023/06/15 06:52:39;;;;;;;24.80;17.70;;;;;;;-128.00;-1.00;-1.00;103033;1260;1003273;-66
2023/06/15 06:55:07;;;;;;;25.50;17.80;;;;;;;-128.00;-1.00;-1.00;103053;1256;1003639;-67
2023/06/15 06:57:35;;;;;;;28.80;18.10;;;;;;;-128.00;-1.00;-1.00;103040;1260;1002944;-66
2023/06/15 07:00:03;;;;;;;27.00;18.10;;;;;;;-128.00;-1.00;-1.00;102846;1260;1009683;-67
2023/06/15 07:02:32;;;;;;;29.50;18.30;;;;;;;-128.00;-1.00;-1.00;102738;1260;1003064;-67
2023/06/15 07:04:59;;;;;;;29.10;20.20;;;;;;;-128.00;-1.00;-1.00;102841;1257;1013365;-66
2023/06/15 07:07:26;;;;;;;28.40;19.30;;;;;;;-128.00;-1.00;-1.00;102959;1260;1003113;-66
2023/06/15 07:09:54;;;;;;;28.40;18.70;;;;;;;-128.00;-1.00;-1.00;103025;1256;1002702;-67
2023/06/15 07:12:21;;;;;;;27.50;19.00;;;;;;;-128.00;-1.00;-1.00;103046;1258;1003096;-65
2023/06/15 07:14:48;;;;;;;25.30;17.30;;;;;;;-128.00;-1.00;-1.00;102959;1260;1003606;-66
2023/06/15 07:17:15;;;;;;;24.70;16.60;;;;;;;-128.00;-1.00;-1.00;103122;1257;1003377;-67
2023/06/15 07:19:42;;;;;;;24.90;17.90;;;;;;;-128.00;-1.00;-1.00;103077;1256;1002353;-66
2023/06/15 07:22:10;;;;;;;25.10;16.30;;;;;;;-128.00;-1.00;-1.00;103097;1270;1002902;-66
2023/06/15 07:24:37;;;;;;;25.40;16.20;;;;;;;-128.00;-1.00;-1.00;103114;1260;1002685;-66
2023/06/15 07:27:05;;;;;;;27.20;17.50;;;;;;;-128.00;-1.00;-1.00;103043;1257;1002408;-66
2023/06/15 07:29:33;;;;;;;25.10;15.70;;;;;;;-128.00;-1.00;-1.00;103084;1258;1002621;-66
2023/06/15 07:32:00;;;;;;;24.20;16.10;;;;;;;-128.00;-1.00;-1.00;103072;1258;1003318;-66
2023/06/15 07:34:27;;;;;;;23.60;16.50;;;;;;;-128.00;-1.00;-1.00;103003;1258;1002813;-66
2023/06/15 07:36:54;;;;;;;24.10;15.30;;;;;;;-128.00;-1.00;-1.00;103113;1260;1004079;-66
2023/06/15 07:39:22;;;;;;;25.50;15.70;;;;;;;-128.00;-1.00;-1.00;102858;1261;1002914;-65
2023/06/15 07:41:49;;;;;;;20.40;14.60;;;;;;;-128.00;-1.00;-1.00;102927;1258;1002935;-70
2023/06/15 07:44:16;;;;;;;19.10;13.30;;;;;;;-128.00;-1.00;-1.00;102770;1257;1002574;-69
2023/06/15 07:46:44;;;;;;;22.60;15.50;;;;;;;-128.00;-1.00;-1.00;102749;1257;1003265;-67
2023/06/15 07:49:12;;;;;;;19.60;14.00;;;;;;;-128.00;-1.00;-1.00;102781;1256;1011634;-66
2023/06/15 07:51:39;;;;;;;18.70;12.90;;;;;;;-128.00;-1.00;-1.00;102961;1257;1002695;-67
2023/06/15 07:54:22;;;;;;;18.40;13.00;;;;;;;-128.00;-1.00;-1.00;103009;1258;1015598;-66
2023/06/15 07:56:49;;;;;;;17.80;12.70;;;;;;;-128.00;-1.00;-1.00;103057;1257;1002460;-68
2023/06/15 07:59:17;;;;;;;13.80;11.30;;;;;;;-128.00;-1.00;-1.00;103079;1257;1003076;-67
2023/06/15 08:01:44;;;;;;;16.10;12.30;;;;;;;-128.00;-1.00;-1.00;102838;1257;1003042;-67
2023/06/15 08:04:13;;;;;;;14.30;10.10;;;;;;;-128.00;-1.00;-1.00;103076;1260;1002606;-68
2023/06/15 08:06:40;;;;;;;16.50;11.40;;;;;;;-128.00;-1.00;-1.00;103064;1257;1012386;-70
2023/06/15 08:09:07;;;;;;;13.70;10.50;;;;;;;-128.00;-1.00;-1.00;102846;1256;1002825;-70
2023/06/15 08:11:35;;;;;;;10.20;8.00;;;;;;;-128.00;-1.00;-1.00;103074;1257;1002845;-70
2023/06/15 08:14:02;;;;;;;10.20;6.90;;;;;;;-128.00;-1.00;-1.00;103004;1260;1002261;-67
2023/06/15 08:16:29;;;;;;;8.80;7.00;;;;;;;-128.00;-1.00;-1.00;103069;1260;1002744;-67
2023/06/15 08:18:59;;;;;;;9.10;7.40;;;;;;;-128.00;-1.00;-1.00;103056;1256;1012790;-66
2023/06/15 08:21:27;;;;;;;10.40;7.90;;;;;;;-128.00;-1.00;-1.00;103063;1259;1003419;-66
2023/06/15 08:23:54;;;;;;;9.50;7.20;;;;;;;-128.00;-1.00;-1.00;103077;1257;1002858;-65
2023/06/15 08:26:22;;;;;;;9.60;6.60;;;;;;;-128.00;-1.00;-1.00;103077;1257;1002645;-65
2023/06/15 08:28:49;;;;;;;8.60;6.80;;;;;;;-128.00;-1.00;-1.00;103034;1260;1002415;-66
2023/06/15 08:31:20;;;;;;;;;;;;;;;-128.00;-1.00;-1.00;103069;1261;1013850;-66
2023/06/15 08:33:47;;;;;;;8.70;7.00;;;;;;;-128.00;-1.00;-1.00;103096;1260;1002398;-66
2023/06/15 08:36:15;;;;;;;8.60;7.20;;;;;;;-128.00;-1.00;-1.00;103051;1260;1003430;-65
2023/06/15 08:38:43;;;;;;;9.30;7.50;;;;;;;-128.00;-1.00;-1.00;103095;1257;1010191;-67
2023/06/15 08:41:11;;;;;;;8.60;7.20;;;;;;;-128.00;-1.00;-1.00;103068;1257;1003193;-65
2023/06/15 08:43:42;;;;;;;9.90;7.90;;;;;;;-128.00;-1.00;-1.00;103078;1259;1012468;-66
2023/06/15 08:46:11;;;;;;;9.00;7.90;;;;;;;-128.00;-1.00;-1.00;103028;1260;1012251;-65
2023/06/15 08:48:39;;;;;;;8.70;7.60;;;;;;;-128.00;-1.00;-1.00;102772;1257;1012488;-65
2023/06/15 08:51:12;;;;;;;8.80;7.00;;;;;;;-128.00;-1.00;-1.00;103104;1257;1010303;-68
2023/06/15 08:53:47;;;;;;;10.50;7.90;;;;;;;-128.00;-1.00;-1.00;103056;1256;1010264;-66
2023/06/15 08:56:15;;;;;;;9.70;7.10;;;;;;;-128.00;-1.00;-1.00;103070;1256;1012650;-67
2023/06/15 08:58:49;;;;;;;9.70;7.40;;;;;;;-128.00;-1.00;-1.00;103079;1260;1003303;-67
2023/06/15 09:01:22;;;;;;;9.30;6.80;;;;;;;-128.00;-1.00;-1.00;103057;1257;1012804;-66
2023/06/15 09:03:55;;;;;;;7.50;6.40;;;;;;;-128.00;-1.00;-1.00;102768;1255;1009867;-65
2023/06/15 09:06:23;;;;;;;9.30;6.30;;;;;;;-128.00;-1.00;-1.00;102990;1256;1010275;-67
2023/06/15 09:08:53;;;;;;;7.20;5.90;;;;;;;-128.00;-1.00;-1.00;102911;1260;1002836;-70
2023/06/15 09:11:23;;;;;;;6.30;5.70;;;;;;;-128.00;-1.00;-1.00;102850;1258;1012257;-71
2023/06/15 09:13:51;;;;;;;7.40;5.40;;;;;;;-128.00;-1.00;-1.00;103058;1257;1012108;-68
2023/06/15 09:16:18;;;;;;;8.00;6.00;;;;;;;-128.00;-1.00;-1.00;102983;1256;1002782;-68
2023/06/15 09:18:47;;;;;;;7.00;6.30;;;;;;;-128.00;-1.00;-1.00;103179;1260;1003862;-67
2023/06/15 09:21:16;;;;;;;8.60;6.40;;;;;;;-128.00;-1.00;-1.00;103052;1256;1012362;-67
2023/06/15 09:23:45;;;;;;;8.10;7.00;;;;;;;-128.00;-1.00;-1.00;103096;1256;1012281;-67
2023/06/15 09:26:27;;;;;;;7.80;6.40;;;;;;;-128.00;-1.00;-1.00;103052;1256;1012730;-66
2023/06/15 09:28:56;;;;;;;6.80;6.00;;;;;;;-128.00;-1.00;-1.00;103090;1261;1009227;-67
2023/06/15 09:31:36;;;;;;;6.20;5.60;;;;;;;-128.00;-1.00;-1.00;103101;1261;1011053;-68
2023/06/15 09:34:09;;;;;;;7.40;5.70;;;;;;;-128.00;-1.00;-1.00;103118;1260;1013591;-67
2023/06/15 09:36:50;;;;;;;6.90;5.20;;;;;;;-128.00;-1.00;-1.00;103094;1256;1012014;-66
2023/06/15 09:39:25;;;;;;;6.30;5.40;;;;;;;-128.00;-1.00;-1.00;103014;1256;1013274;-67
2023/06/15 09:41:53;;;;;;;5.60;5.10;;;;;;;-128.00;-1.00;-1.00;102975;1257;1010453;-68
2023/06/15 09:44:22;;;;;;;7.70;5.90;;;;;;;-128.00;-1.00;-1.00;103013;1256;1011055;-66
2023/06/15 09:46:51;;;;;;;6.30;5.60;;;;;;;-128.00;-1.00;-1.00;102936;1257;1013050;-66
2023/06/15 09:49:25;;;;;;;6.90;6.20;;;;;;;-128.00;-1.00;-1.00;102706;1256;1013017;-67
2023/06/15 09:51:54;;;;;;;7.10;5.60;;;;;;;-128.00;-1.00;-1.00;103058;1256;1013416;-64
2023/06/15 09:54:24;;;;;;;6.30;5.60;;;;;;;-128.00;-1.00;-1.00;103099;1256;1010202;-67
2023/06/15 09:56:52;;;;;;;6.60;5.90;;;;;;;-128.00;-1.00;-1.00;103095;1256;1010643;-67
2023/06/15 09:59:20;;;;;;;7.00;6.30;;;;;;;-128.00;-1.00;-1.00;103086;1255;1014112;-66
2023/06/15 10:01:50;;;;;;;9.20;6.00;;;;;;;-128.00;-1.00;-1.00;103095;1256;1012352;-66
2023/06/15 10:04:24;;;;;;;6.80;6.10;;;;;;;-128.00;-1.00;-1.00;103043;1260;1012855;-66
2023/06/15 10:06:57;;;;;;;6.90;6.30;;;;;;;-128.00;-1.00;-1.00;102730;1260;1010679;-66
2023/06/15 10:09:29;;;;;;;7.70;6.50;;;;;;;-128.00;-1.00;-1.00;102820;1260;1011430;-67
2023/06/15 10:12:04;;;;;;;6.60;6.00;;;;;;;-128.00;-1.00;-1.00;102941;1260;1013275;-66
2023/06/15 10:14:38;;;;;;;10.20;6.20;;;;;;;-128.00;-1.00;-1.00;102831;1255;1012431;-68
2023/06/15 10:17:10;;;;;;;7.10;6.00;;;;;;;-128.00;-1.00;-1.00;102733;1255;1012535;-67
2023/06/15 10:19:43;;;;;;;7.20;6.40;;;;;;;-128.00;-1.00;-1.00;103119;1254;1009880;-66
2023/06/15 10:22:16;;;;;;;7.20;5.70;;;;;;;-128.00;-1.00;-1.00;103177;1254;1010734;-66
2023/06/15 10:24:45;;;;;;;7.40;5.60;;;;;;;-128.00;-1.00;-1.00;103071;1253;1012780;-66
2023/06/15 10:27:14;;;;;;;6.60;5.90;;;;;;;-128.00;-1.00;-1.00;102947;1253;1013216;-66
2023/06/15 10:29:58;;;;;;;7.50;6.70;;;;;;;-128.00;-1.00;-1.00;103008;1257;1014271;-68
2023/06/15 10:32:55;;;;;;;8.10;6.60;;;;;;;-128.00;-1.00;-1.00;102972;1257;1010218;-67
2023/06/15 10:35:31;;;;;;;8.50;6.60;;;;;;;-128.00;-1.00;-1.00;103102;1253;1011397;-67
2023/06/15 10:38:28;;;;;;;7.60;6.10;;;;;;;-128.00;-1.00;-1.00;103184;1254;1013062;-68
2023/06/15 10:40:57;;;;;;;8.40;7.60;;;;;;;-128.00;-1.00;-1.00;103172;1254;1012724;-68
2023/06/15 10:43:29;;;;;;;8.70;7.80;;;;;;;-128.00;-1.00;-1.00;103184;1257;1012876;-67
2023/06/15 10:45:56;;;;;;;8.00;7.20;;;;;;;-128.00;-1.00;-1.00;103167;1253;1010771;-65
2023/06/15 10:48:27;;;;;;;7.50;6.40;;;;;;;-128.00;-1.00;-1.00;103169;1255;1004288;-66
2023/06/15 10:51:06;;;;;;;7.80;7.00;;;;;;;-128.00;-1.00;-1.00;103154;1258;1012344;-66
2023/06/15 10:53:38;;;;;;;7.60;6.90;;;;;;;-128.00;-1.00;-1.00;103131;1253;1012741;-66
2023/06/15 10:56:21;;;;;;;8.30;7.20;;;;;;;-128.00;-1.00;-1.00;103118;1257;1012237;-67
2023/06/15 10:58:52;;;;;;;7.00;6.30;;;;;;;-128.00;-1.00;-1.00;103118;1257;1009867;-69
2023/06/15 11:01:22;;;;;;;8.30;6.90;;;;;;;-128.00;-1.00;-1.00;103113;1253;1010821;-67
2023/06/15 11:03:54;;;;;;;8.20;6.60;;;;;;;-128.00;-1.00;-1.00;103134;1257;1013028;-70
2023/06/15 11:06:30;;;;;;;8.40;7.10;;;;;;;-128.00;-1.00;-1.00;103138;1253;1011914;-67
2023/06/15 11:09:06;;;;;;;7.30;6.60;;;;;;;-128.00;-1.00;-1.00;103102;1253;1013841;-68
2023/06/15 11:11:36;;;;;;;7.50;6.60;;;;;;;-128.00;-1.00;-1.00;103139;1257;1010645;-67
2023/06/15 11:14:20;;;;;;;7.60;6.80;;;;;;;-128.00;-1.00;-1.00;103129;1253;1010425;-69
2023/06/15 11:17:05;;;;;;;7.60;6.90;;;;;;;-128.00;-1.00;-1.00;103138;1257;1013264;-67